NBEK1: Neosho R at Burlingame Rd nr Emporia KS

                                SHEF ID:       NBEK1     NEOSHO R AT BURLINGAME RD NR EMP
STATION TYPE:

PRECIP STAGE STAGE(2) RIV-FLOW BAT-LOAD
in ft ft cfs volt
Ccp-Rev Ccp-Rev Ccp-Rev Ccp-Rev Ccp-Rev
(America/Chicago)
04/30 00:00 0.00 6.45 4.61 1046 12.41
04/30 01:00 0.00 6.42 4.59 1035 12.38
04/30 02:00 0.00 6.38 4.59 1020 12.36
04/30 03:00 0.00 6.35 4.57 1009 12.31
04/30 04:00 0.00 6.32 4.55 998 12.31
04/30 05:00 0.00 6.29 4.56 987 12.23
04/30 06:00 0.00 6.26 4.54 976 12.17
04/30 07:00 0.00 6.24 4.53 969 12.13
04/30 08:00 0.00 6.22 4.53 962 12.24
04/30 09:00 0.00 6.19 4.52 951 12.53
04/30 10:00 0.00 6.17 4.50 944 13.19
04/30 11:00 0.00 6.14 4.50 933 13.07
04/30 12:00 0.00 6.12 4.50 926 12.95
04/30 13:00 0.00 6.11 4.48 922 12.80
04/30 14:00 0.00 6.09 4.49 915 12.73
04/30 15:00 0.00 6.07 4.47 908 12.70
04/30 16:00 0.00 6.05 4.47 901 12.69
04/30 17:00 0.00 6.04 4.45 897 12.64
04/30 18:00 0.00 6.02 4.45 890 12.65
04/30 19:00 0.00 6.00 4.46 883 12.61
04/30 20:00 0.00 5.98 4.45 876 12.55
04/30 21:00 0.00 5.97 4.45 873 12.50
04/30 22:00 0.00 5.96 4.44 869 12.48
04/30 23:00 0.00 5.95 4.44 866 12.44
Data processed at Fri 01May2026 04:36 GMT

NOTICE: If you are parsing this page

Please convert to using our Data API. Starting early 2026 we will be migrating to: https://water.usace.army.mil with modern pages rendered in JavaScript. When this migration completes you will no longer be able to scrape this page! CWMSDataAPI (CDA)

Timeseries IDs (TSIDs)

TSIDs used from left to right in the data table
EMPO.Precip-Inc.Total.1Hour.1Hour.Ccp-Rev
EMPO.Stage.Inst.1Hour.0.Ccp-Rev
EMPO.Stage-Alt.Inst.1Hour.0.Ccp-Rev
EMPO.Flow.Inst.1Hour.0.Ccp-Rev
EMPO.Volt-Battery Load.Inst.1Hour.0.Ccp-Rev

                            

All information presented herein is the property of the government of the United States of America and may be revised or deleted at any time without prior notice. Dissemination of this information without the expressed written consent of the Public Affairs Office, Tulsa District U.S. Army Corps of Engineers is strictly prohibited. These data are gathered electronically and, as presented, have NOT undergone any form of quality control. These data are NOT guaranteed to be valid or correct.